Lafayette, IN (47904)

12:00 AM EST on February 14, 2016 (GMT -0500)
Cumberland Elementary/West Lafayette | | Change Station
CLOSE
Current Station
Personal Weather Station
Location: West Lafayette, IN
Elevation: 712 ft
Nearby Weather Stations
Active Advisory: Winter Weather Advisory

Elev 712 ft 40.46 °N, 86.91 °W | Updated 11 minutes ago

Mostly Cloudy
Mostly Cloudy
11.3 °F
Feels Like 0 °F
N
7.4
Wind Variable Wind from ENE

Today
High -- | Low -- °F
--% Chance of Precip.
Yesterday
High -- | Low -- °F
Precip. -- in
Pressure 30.52 in
Visibility 10.0 miles
Clouds Clear
Windchill 0 °F
Dew Point 2 °F
Humidity 64%
Rainfall in
Snow Depth Not available.
7:42 AM 6:21 PM
Waxing Crescent, 37% visible
METAR KLAF 140454Z AUTO 00000KT 10SM CLR M12/M16 A3048 RMK AO2 SLP333 T11171156 410721156
Pressure 30.52 in
Visibility 10.0 miles
Clouds Clear
Windchill 0 °F
Dew Point 2 °F
Humidity 64%
Rainfall in
Snow Depth Not available.
7:42 AM 6:21 PM
Waxing Crescent, 37% visible
METAR KLAF 140454Z AUTO 00000KT 10SM CLR M12/M16 A3048 RMK AO2 SLP333 T11171156 410721156

10-Day Weather Forecast

Almanac

Astronomy

Feb. 14, 2016 Rise Set
Actual Time
Civil Twilight
Nautical Twilight
Astronomical Twilight
Moon
Length of Visible Light
Length of Day
Tomorrow will be .
, % of the Moon is Illuminated

Today's Extremes

State Highs State Lows

Community

WunderPhotos

Upload Photos

1,892,746 photos uploaded!

WunderBlog® & News

Nearby

Air Quality

  Air Quality AQ Index Pollutant
Not available.

Snow Depth

Station Depth Elevation

Earthquake Activity

City Distance Mag. Time & Date
Minimum magnitude displayed is 2.5.

Coastal Water Temperatures

Place Temperature

Stations

Nearby Weather Stations

Station Location Temp. Windchill Dew Point Humidity Wind Precip. Elev Updated Type
                   

Watches & Warnings

Winter Weather Advisory
Issued: 9:51 PM EST Feb. 13, 2016 – National Weather Service

... Winter Weather Advisory remains in effect from 8 am Sunday to
midnight EST Sunday night...

* timing... snow developing by mid morning Sunday and continuing
the rest of the day and gradually diminishing Sunday night.

* Main impact... snow covered roads and poor travel conditions.
Snow accumulations of up to three inches are possible.

Precautionary/preparedness actions...

A Winter Weather Advisory for snow means that periods of snow
will cause primarily travel difficulties. Be prepared for snow
covered roads and limited visibilities... and use caution while
driving.